Time,TemperatureF,DewpointF,PressureIn,WindDirection,WindDirectionDegrees,WindSpeedMPH,WindSpeedGustMPH,Humidity,HourlyPrecipIn,Conditions,Clouds,dailyrainin,SoftwareType,DateUTC
2013-01-11 00:03:00,25.9,20.9,30.58,SSE,165,0.0,1.0,81,0.00,,,0.00,Wunderground v.1.15,2013-01-11 05:03:00,
2013-01-11 00:08:00,25.9,21.2,30.58,SW,235,0.0,0.0,82,0.00,,,0.00,Wunderground v.1.15,2013-01-11 05:08:00,
2013-01-11 00:13:00,26.1,21.4,30.57,NNE,20,0.0,0.0,82,0.00,,,0.00,Wunderground v.1.15,2013-01-11 05:13:00,
2013-01-11 00:23:00,29.4,26.0,30.56,NE,54,1.0,1.0,87,0.00,,,0.00,Wunderground v.1.15,2013-01-11 05:23:00,
2013-01-11 00:28:00,27.4,22.0,30.56,ENE,74,1.0,1.0,80,0.00,,,0.00,Wunderground v.1.15,2013-01-11 05:28:00,
2013-01-11 00:38:00,26.7,21.4,30.56,East,79,0.0,0.0,80,0.00,,,0.00,Wunderground v.1.15,2013-01-11 05:38:00,
2013-01-11 00:43:00,26.2,21.2,30.56,East,85,0.0,0.0,81,0.00,,,0.00,Wunderground v.1.15,2013-01-11 05:43:00,
2013-01-11 00:48:00,25.9,20.9,30.56,West,260,0.0,2.0,81,0.00,,,0.00,Wunderground v.1.15,2013-01-11 05:48:00,
2013-01-11 00:58:00,25.1,20.4,30.55,NNE,23,0.0,0.0,82,0.00,,,0.00,Wunderground v.1.15,2013-01-11 05:58:00,
2013-01-11 01:08:00,26.5,20.9,30.55,NNE,32,0.0,0.0,79,0.00,,,0.00,Wunderground v.1.15,2013-01-11 06:08:00,
2013-01-11 01:13:00,30.2,27.3,30.55,NNE,30,0.0,1.0,89,0.00,,,0.00,Wunderground v.1.15,2013-01-11 06:13:00,
2013-01-11 01:18:00,36.5,33.8,30.55,NNE,25,1.0,1.0,90,0.00,,,0.00,Wunderground v.1.15,2013-01-11 06:18:00,
2013-01-11 01:28:00,28.2,24.0,30.54,NNW,345,1.0,1.0,84,0.00,,,0.00,Wunderground v.1.15,2013-01-11 06:28:00,
2013-01-11 01:33:00,28.2,24.8,30.54,NE,39,1.0,2.0,87,0.00,,,0.00,Wunderground v.1.15,2013-01-11 06:33:00,
2013-01-11 01:43:00,30.0,27.2,30.54,NNE,16,1.0,1.0,89,0.00,,,0.00,Wunderground v.1.15,2013-01-11 06:43:00,
2013-01-11 01:48:00,27.5,23.9,30.54,NNE,19,1.0,1.0,86,0.00,,,0.00,Wunderground v.1.15,2013-01-11 06:48:00,
2013-01-11 01:53:00,26.5,22.9,30.54,NNE,19,0.0,1.0,86,0.00,,,0.00,Wunderground v.1.15,2013-01-11 06:53:00,
2013-01-11 01:58:00,25.3,21.4,30.54,NNE,20,0.0,0.0,85,0.00,,,0.00,Wunderground v.1.15,2013-01-11 06:58:00,
2013-01-11 02:08:00,26.3,23.2,30.54,NE,46,0.0,1.0,88,0.00,,,0.00,Wunderground v.1.15,2013-01-11 07:08:00,
2013-01-11 02:18:00,24.3,20.2,30.54,SSW,205,1.0,1.0,84,0.00,,,0.00,Wunderground v.1.15,2013-01-11 07:18:00,
2013-01-11 02:23:00,23.5,19.4,30.54,SSE,163,0.0,1.0,84,0.00,,,0.00,Wunderground v.1.15,2013-01-11 07:23:00,
2013-01-11 02:28:00,23.0,19.2,30.54,SSE,162,0.0,0.0,85,0.00,,,0.00,Wunderground v.1.15,2013-01-11 07:28:00,
2013-01-11 02:38:00,22.3,18.5,30.54,SSE,150,0.0,1.0,85,0.00,,,0.00,Wunderground v.1.15,2013-01-11 07:38:00,
2013-01-11 02:43:00,22.2,18.7,30.54,SE,146,1.0,1.0,86,0.00,,,0.00,Wunderground v.1.15,2013-01-11 07:43:00,
2013-01-11 02:53:00,22.4,18.8,30.54,SSE,150,0.0,0.0,86,0.00,,,0.00,Wunderground v.1.15,2013-01-11 07:53:00,
2013-01-11 02:58:00,22.4,18.8,30.53,SSE,152,0.0,0.0,86,0.00,,,0.00,Wunderground v.1.15,2013-01-11 07:58:00,
2013-01-11 03:08:00,22.6,19.3,30.53,SW,224,0.0,0.0,87,0.00,,,0.00,Wunderground v.1.15,2013-01-11 08:08:00,
2013-01-11 03:13:00,22.7,19.1,30.53,SW,224,0.0,0.0,86,0.00,,,0.00,Wunderground v.1.15,2013-01-11 08:13:00,
2013-01-11 03:18:00,22.5,18.9,30.53,SW,224,0.0,0.0,86,0.00,,,0.00,Wunderground v.1.15,2013-01-11 08:18:00,
2013-01-11 03:28:00,22.3,18.7,30.53,SW,221,0.0,0.0,86,0.00,,,0.00,Wunderground v.1.15,2013-01-11 08:28:00,
2013-01-11 03:33:00,22.2,18.7,30.53,SW,221,0.0,0.0,86,0.00,,,0.00,Wunderground v.1.15,2013-01-11 08:33:00,
2013-01-11 03:43:00,21.8,18.3,30.53,SW,220,0.0,0.0,86,0.00,,,0.00,Wunderground v.1.15,2013-01-11 08:43:00,
2013-01-11 03:48:00,21.7,18.2,30.53,SW,219,0.0,0.0,86,0.00,,,0.00,Wunderground v.1.15,2013-01-11 08:48:00,
2013-01-11 03:54:00,22.2,18.9,30.52,NNE,32,0.0,0.0,87,0.00,,,0.00,Wunderground v.1.15,2013-01-11 08:54:00,
2013-01-11 03:59:00,24.2,21.4,30.52,NNE,32,0.0,0.0,89,0.00,,,0.00,Wunderground v.1.15,2013-01-11 08:59:00,
2013-01-11 04:09:00,23.5,20.2,30.52,NE,43,0.0,1.0,87,0.00,,,0.00,Wunderground v.1.15,2013-01-11 09:09:00,
2013-01-11 04:19:00,36.0,33.4,30.52,NNE,29,1.0,1.0,90,0.00,,,0.00,Wunderground v.1.15,2013-01-11 09:19:00,
2013-01-11 04:24:00,29.5,26.9,30.51,NNW,335,1.0,1.0,90,0.00,,,0.00,Wunderground v.1.15,2013-01-11 09:24:00,
2013-01-11 04:34:00,23.8,20.2,30.51,SE,134,0.0,1.0,86,0.00,,,0.00,Wunderground v.1.15,2013-01-11 09:34:00,
2013-01-11 04:39:00,25.7,22.9,30.51,ENE,61,0.0,0.0,89,0.00,,,0.00,Wunderground v.1.15,2013-01-11 09:39:00,
2013-01-11 04:49:00,23.5,20.2,30.52,NE,55,0.0,0.0,87,0.00,,,0.00,Wunderground v.1.15,2013-01-11 09:49:00,
2013-01-11 04:54:00,22.8,19.5,30.52,WNW,283,0.0,0.0,87,0.00,,,0.00,Wunderground v.1.15,2013-01-11 09:54:00,
2013-01-11 04:59:00,23.9,21.1,30.52,NE,43,0.0,2.0,89,0.00,,,0.00,Wunderground v.1.15,2013-01-11 09:59:00,
2013-01-11 05:09:00,27.6,25.1,30.51,NE,56,1.0,1.0,90,0.00,,,0.00,Wunderground v.1.15,2013-01-11 10:09:00,
2013-01-11 05:14:00,25.5,22.7,30.51,ENE,58,0.0,1.0,89,0.00,,,0.00,Wunderground v.1.15,2013-01-11 10:14:00,
2013-01-11 05:19:00,24.0,20.7,30.51,ENE,58,0.0,0.0,87,0.00,,,0.00,Wunderground v.1.15,2013-01-11 10:19:00,
2013-01-11 05:29:00,30.6,28.0,30.51,NE,39,1.0,1.0,90,0.00,,,0.00,Wunderground v.1.15,2013-01-11 10:29:00,
2013-01-11 05:34:00,31.5,28.9,30.51,NE,36,1.0,1.0,90,0.00,,,0.00,Wunderground v.1.15,2013-01-11 10:34:00,
2013-01-11 05:44:00,24.9,21.3,30.52,NNE,22,0.0,1.0,86,0.00,,,0.00,Wunderground v.1.15,2013-01-11 10:44:00,
2013-01-11 05:49:00,24.2,20.6,30.52,NNE,23,0.0,0.0,86,0.00,,,0.00,Wunderground v.1.15,2013-01-11 10:49:00,
2013-01-11 05:59:00,25.4,22.6,30.51,NNE,21,0.0,0.0,89,0.00,,,0.00,Wunderground v.1.15,2013-01-11 10:59:00,
2013-01-11 06:09:00,26.1,23.3,30.52,NE,37,0.0,1.0,89,0.00,,,0.00,Wunderground v.1.15,2013-01-11 11:09:00,
2013-01-11 06:14:00,28.2,25.6,30.51,ENE,58,1.0,1.0,90,0.00,,,0.00,Wunderground v.1.15,2013-01-11 11:14:00,
2013-01-11 06:19:00,26.8,24.0,30.51,NE,55,0.0,0.0,89,0.00,,,0.00,Wunderground v.1.15,2013-01-11 11:19:00,
2013-01-11 06:24:00,24.8,20.9,30.51,NE,54,0.0,0.0,85,0.00,,,0.00,Wunderground v.1.15,2013-01-11 11:24:00,
2013-01-11 06:34:00,23.5,19.9,30.52,NE,54,0.0,0.0,86,0.00,,,0.00,Wunderground v.1.15,2013-01-11 11:34:00,
2013-01-11 06:39:00,24.0,21.0,30.52,ENE,63,0.0,0.0,88,0.00,,,0.00,Wunderground v.1.15,2013-01-11 11:39:00,
2013-01-11 06:49:00,23.9,20.6,30.52,ENE,61,0.0,1.0,87,0.00,,,0.00,Wunderground v.1.15,2013-01-11 11:49:00,
2013-01-11 06:54:00,31.4,28.8,30.52,NE,46,1.0,1.0,90,0.00,,,0.00,Wunderground v.1.15,2013-01-11 11:54:00,
2013-01-11 06:59:00,31.5,28.9,30.52,NE,47,1.0,1.0,90,0.00,,,0.00,Wunderground v.1.15,2013-01-11 11:59:00,
2013-01-11 07:09:00,30.8,28.2,30.52,NE,44,1.0,1.0,90,0.00,,,0.00,Wunderground v.1.15,2013-01-11 12:09:00,
2013-01-11 07:14:00,28.3,23.5,30.52,NNE,30,1.0,1.0,82,0.00,,,0.00,Wunderground v.1.15,2013-01-11 12:14:00,
2013-01-11 07:24:00,25.7,21.0,30.52,NNE,16,0.0,0.0,82,0.00,,,0.00,Wunderground v.1.15,2013-01-11 12:24:00,
2013-01-11 07:29:00,24.9,20.5,30.52,NNE,30,0.0,0.0,83,0.00,,,0.00,Wunderground v.1.15,2013-01-11 12:29:00,
2013-01-11 07:39:00,24.5,20.6,30.52,SE,142,1.0,1.0,85,0.00,,,0.00,Wunderground v.1.15,2013-01-11 12:39:00,
2013-01-11 07:44:00,24.5,20.6,30.53,SSE,150,0.0,1.0,85,0.00,,,0.00,Wunderground v.1.15,2013-01-11 12:44:00,
2013-01-11 07:54:00,24.6,20.7,30.53,West,260,0.0,0.0,85,0.00,,,0.00,Wunderground v.1.15,2013-01-11 12:54:00,
2013-01-11 07:59:00,24.6,20.7,30.52,WSW,255,0.0,0.0,85,0.00,,,0.00,Wunderground v.1.15,2013-01-11 12:59:00,
2013-01-11 08:08:00,24.7,20.8,30.53,WSW,247,0.0,0.0,85,0.00,,,0.00,Wunderground v.1.15,2013-01-11 13:08:00,
2013-01-11 08:13:00,27.0,23.9,30.52,NE,37,0.0,0.0,88,0.00,,,0.00,Wunderground v.1.15,2013-01-11 13:13:00,
2013-01-11 08:19:00,28.2,25.4,30.52,NNE,24,0.0,1.0,89,0.00,,,0.00,Wunderground v.1.15,2013-01-11 13:19:00,
2013-01-11 08:28:00,26.6,22.4,30.52,NNE,16,0.0,0.0,84,0.00,,,0.00,Wunderground v.1.15,2013-01-11 13:28:00,
2013-01-11 08:34:00,29.1,26.3,30.52,NE,37,0.0,1.0,89,0.00,,,0.00,Wunderground v.1.15,2013-01-11 13:34:00,
2013-01-11 08:39:00,32.6,30.0,30.51,NE,50,1.0,1.0,90,0.00,,,0.00,Wunderground v.1.15,2013-01-11 13:39:00,
2013-01-11 08:48:00,29.9,23.3,30.52,NE,48,0.0,0.0,76,0.00,,,0.00,Wunderground v.1.15,2013-01-11 13:48:00,
2013-01-11 08:53:00,28.6,22.6,30.52,ESE,118,0.0,0.0,78,0.00,,,0.00,Wunderground v.1.15,2013-01-11 13:53:00,
2013-01-11 08:59:00,27.7,22.0,30.51,ESE,118,0.0,0.0,79,0.00,,,0.00,Wunderground v.1.15,2013-01-11 13:59:00,
2013-01-11 09:08:00,27.7,22.0,30.51,ESE,105,0.0,1.0,79,0.00,,,0.00,Wunderground v.1.15,2013-01-11 14:08:00,
2013-01-11 09:18:00,29.8,22.8,30.51,NE,45,0.0,0.0,75,0.00,,,0.00,Wunderground v.1.15,2013-01-11 14:18:00,
2013-01-11 09:28:00,28.4,22.4,30.51,NNW,340,0.0,0.0,78,0.00,,,0.00,Wunderground v.1.15,2013-01-11 14:28:00,
2013-01-11 09:33:00,31.8,26.6,30.50,NE,44,1.0,1.0,81,0.00,,,0.00,Wunderground v.1.15,2013-01-11 14:33:00,
2013-01-11 09:43:00,34.4,31.8,30.50,NNE,27,1.0,1.0,90,0.00,,,0.00,Wunderground v.1.15,2013-01-11 14:43:00,
2013-01-11 09:53:00,31.2,23.9,30.50,NNE,30,0.0,0.0,74,0.00,,,0.00,Wunderground v.1.15,2013-01-11 14:53:00,
2013-01-11 09:58:00,33.8,30.9,30.49,NE,43,0.0,0.0,89,0.00,,,0.00,Wunderground v.1.15,2013-01-11 14:58:00,
2013-01-11 10:08:00,32.1,24.7,30.49,NE,44,0.0,0.0,74,0.00,,,0.00,Wunderground v.1.15,2013-01-11 15:08:00,
2013-01-11 10:13:00,31.8,23.8,30.49,NE,42,0.0,0.0,72,0.00,,,0.00,Wunderground v.1.15,2013-01-11 15:13:00,
2013-01-11 10:18:00,38.5,35.8,30.48,NNE,30,1.0,1.0,90,0.00,,,0.00,Wunderground v.1.15,2013-01-11 15:18:00,
2013-01-11 10:28:00,40.4,37.7,30.48,NNE,17,2.0,2.0,90,0.00,,,0.00,Wunderground v.1.15,2013-01-11 15:28:00,
2013-01-11 10:33:00,36.7,31.7,30.48,NNE,29,1.0,2.0,82,0.00,,,0.00,Wunderground v.1.15,2013-01-11 15:33:00,
2013-01-11 10:38:00,34.7,25.2,30.48,NNE,29,0.0,0.0,68,0.00,,,0.00,Wunderground v.1.15,2013-01-11 15:38:00,
2013-01-11 10:48:00,33.6,24.9,30.47,SE,146,0.0,0.0,70,0.00,,,0.00,Wunderground v.1.15,2013-01-11 15:48:00,
2013-01-11 10:54:00,32.9,24.2,30.47,WSW,238,1.0,1.0,70,0.00,,,0.00,Wunderground v.1.15,2013-01-11 15:54:00,
2013-01-11 10:59:00,32.3,23.6,30.47,SW,235,1.0,1.0,70,0.00,,,0.00,Wunderground v.1.15,2013-01-11 15:59:00,
2013-01-11 11:09:00,31.9,23.6,30.46,SSE,151,1.0,1.0,71,0.00,,,0.00,Wunderground v.1.15,2013-01-11 16:09:00,
2013-01-11 11:14:00,31.9,23.6,30.46,SE,141,1.0,1.0,71,0.00,,,0.00,Wunderground v.1.15,2013-01-11 16:14:00,
2013-01-11 11:19:00,32.0,23.3,30.45,SW,231,1.0,1.0,70,0.00,,,0.00,Wunderground v.1.15,2013-01-11 16:19:00,
2013-01-11 11:24:00,32.1,23.4,30.46,WSW,240,1.0,1.0,70,0.00,,,0.00,Wunderground v.1.15,2013-01-11 16:24:00,
2013-01-11 11:34:00,32.2,23.2,30.45,SE,141,1.0,1.0,69,0.00,,,0.00,Wunderground v.1.15,2013-01-11 16:34:00,
2013-01-11 11:39:00,32.4,23.4,30.45,SE,134,1.0,1.0,69,0.00,,,0.00,Wunderground v.1.15,2013-01-11 16:39:00,
2013-01-11 11:49:00,32.6,23.2,30.44,WSW,257,0.0,1.0,68,0.00,,,0.00,Wunderground v.1.15,2013-01-11 16:49:00,
2013-01-11 11:54:00,32.7,23.6,30.44,West,274,1.0,1.0,69,0.00,,,0.00,Wunderground v.1.15,2013-01-11 16:54:00,
2013-01-11 11:59:00,33.0,23.9,30.43,WNW,286,1.0,1.0,69,0.00,,,0.00,Wunderground v.1.15,2013-01-11 16:59:00,
2013-01-11 12:09:00,33.3,23.5,30.43,West,279,1.0,1.0,67,0.00,,,0.00,Wunderground v.1.15,2013-01-11 17:09:00,
2013-01-11 12:15:00,33.5,23.7,30.43,WSW,257,0.0,1.0,67,0.00,,,0.00,Wunderground v.1.15,2013-01-11 17:15:00,
2013-01-11 12:25:00,33.7,23.2,30.42,ESE,113,0.0,1.0,65,0.00,,,0.00,Wunderground v.1.15,2013-01-11 17:25:00,
2013-01-11 12:30:00,33.7,23.2,30.42,SE,141,1.0,1.0,65,0.00,,,0.00,Wunderground v.1.15,2013-01-11 17:30:00,
2013-01-11 12:35:00,33.9,23.7,30.42,WSW,249,0.0,1.0,66,0.00,,,0.00,Wunderground v.1.15,2013-01-11 17:35:00,
2013-01-11 12:45:00,33.9,23.4,30.41,SW,223,1.0,1.0,65,0.00,,,0.00,Wunderground v.1.15,2013-01-11 17:45:00,
2013-01-11 12:50:00,33.9,23.4,30.41,SW,218,1.0,1.0,65,0.00,,,0.00,Wunderground v.1.15,2013-01-11 17:50:00,
2013-01-11 12:55:00,33.9,23.4,30.40,SE,129,1.0,1.0,65,0.00,,,0.00,Wunderground v.1.15,2013-01-11 17:55:00,
2013-01-11 13:00:00,33.9,23.4,30.39,SE,124,1.0,1.0,65,0.00,,,0.00,Wunderground v.1.15,2013-01-11 18:00:00,
2013-01-11 13:10:00,34.2,23.7,30.38,WNW,284,1.0,1.0,65,0.00,,,0.00,Wunderground v.1.15,2013-01-11 18:10:00,
2013-01-11 13:15:00,34.0,24.2,30.39,WSW,247,1.0,1.0,67,0.00,,,0.00,Wunderground v.1.15,2013-01-11 18:15:00,
2013-01-11 13:20:00,33.9,24.4,30.39,West,273,1.0,1.0,68,0.00,,,0.00,Wunderground v.1.15,2013-01-11 18:20:00,
2013-01-11 13:30:00,34.0,23.5,30.39,WSW,245,1.0,1.0,65,0.00,,,0.00,Wunderground v.1.15,2013-01-11 18:30:00,
2013-01-11 13:35:00,34.2,24.0,30.38,SE,143,1.0,1.0,66,0.00,,,0.00,Wunderground v.1.15,2013-01-11 18:35:00,
2013-01-11 13:45:00,34.4,23.8,30.38,SW,228,0.0,1.0,65,0.00,,,0.00,Wunderground v.1.15,2013-01-11 18:45:00,
2013-01-11 13:50:00,34.2,23.7,30.38,WSW,243,1.0,3.0,65,0.00,,,0.00,Wunderground v.1.15,2013-01-11 18:50:00,
2013-01-11 14:00:00,34.0,23.8,30.38,SSE,152,1.0,1.0,66,0.00,,,0.00,Wunderground v.1.15,2013-01-11 19:00:00,
2013-01-11 14:10:00,33.9,23.7,30.37,WSW,243,1.0,1.0,66,0.00,,,0.00,Wunderground v.1.15,2013-01-11 19:10:00,
2013-01-11 14:20:00,33.9,23.7,30.37,ESE,121,1.0,1.0,66,0.00,,,0.00,Wunderground v.1.15,2013-01-11 19:20:00,
2013-01-11 14:25:00,33.9,23.7,30.37,SSW,211,1.0,1.0,66,0.00,,,0.00,Wunderground v.1.15,2013-01-11 19:25:00,
2013-01-11 14:30:00,33.9,23.7,30.36,SW,217,1.0,1.0,66,0.00,,,0.00,Wunderground v.1.15,2013-01-11 19:30:00,
2013-01-11 14:40:00,33.9,24.1,30.36,SSE,158,0.0,1.0,67,0.00,,,0.00,Wunderground v.1.15,2013-01-11 19:40:00,
2013-01-11 14:45:00,34.0,23.8,30.36,SSW,211,1.0,1.0,66,0.00,,,0.00,Wunderground v.1.15,2013-01-11 19:45:00,
2013-01-11 14:50:00,34.0,23.8,30.36,SW,224,1.0,1.0,66,0.00,,,0.00,Wunderground v.1.15,2013-01-11 19:50:00,
2013-01-11 15:01:00,34.1,23.9,30.35,SW,229,1.0,1.0,66,0.00,,,0.00,Wunderground v.1.15,2013-01-11 20:01:00,
2013-01-11 15:10:00,34.0,23.8,30.36,SW,235,1.0,2.0,66,0.00,,,0.00,Wunderground v.1.15,2013-01-11 20:10:00,
2013-01-11 15:15:00,33.9,24.1,30.36,WSW,243,1.0,2.0,67,0.00,,,0.00,Wunderground v.1.15,2013-01-11 20:15:00,
2013-01-11 15:20:00,33.9,24.1,30.36,SW,232,1.0,1.0,67,0.00,,,0.00,Wunderground v.1.15,2013-01-11 20:20:00,
2013-01-11 15:25:00,33.9,24.1,30.35,WSW,243,1.0,1.0,67,0.00,,,0.00,Wunderground v.1.15,2013-01-11 20:25:00,
2013-01-11 15:35:00,33.8,24.0,30.34,SW,226,0.0,0.0,67,0.00,,,0.00,Wunderground v.1.15,2013-01-11 20:35:00,
2013-01-11 15:45:00,33.9,24.1,30.33,SE,144,0.0,1.0,67,0.00,,,0.00,Wunderground v.1.15,2013-01-11 20:45:00,
2013-01-11 15:50:00,33.9,24.1,30.33,SE,128,0.0,0.0,67,0.00,,,0.00,Wunderground v.1.15,2013-01-11 20:50:00,
2013-01-11 15:55:00,34.1,24.3,30.34,West,277,0.0,0.0,67,0.00,,,0.00,Wunderground v.1.15,2013-01-11 20:55:00,
2013-01-11 16:01:00,34.1,24.3,30.33,NW,314,1.0,1.0,67,0.00,,,0.00,Wunderground v.1.15,2013-01-11 21:01:00,
2013-01-11 16:10:00,33.9,25.5,30.33,NW,314,0.0,0.0,71,0.00,,,0.00,Wunderground v.1.15,2013-01-11 21:10:00,
2013-01-11 16:15:00,33.7,26.0,30.33,NW,314,0.0,0.0,73,0.00,,,0.00,Wunderground v.1.15,2013-01-11 21:15:00,
2013-01-11 16:25:00,33.6,27.2,30.33,NW,319,0.0,0.0,77,0.00,,,0.01,Wunderground v.1.15,2013-01-11 21:25:00,
2013-01-11 16:30:00,33.6,27.5,30.33,NW,319,0.0,0.0,78,0.18,,,0.03,Wunderground v.1.15,2013-01-11 21:30:00,
2013-01-11 16:36:00,33.2,27.7,30.33,ENE,64,0.0,0.0,80,0.16,,,0.04,Wunderground v.1.15,2013-01-11 21:36:00,
2013-01-11 16:45:00,32.6,28.0,30.32,ENE,67,0.0,0.0,83,0.05,,,0.05,Wunderground v.1.15,2013-01-11 21:45:00,
2013-01-11 16:50:00,32.4,27.8,30.32,ENE,67,0.0,0.0,83,0.05,,,0.05,Wunderground v.1.15,2013-01-11 21:50:00,
2013-01-11 16:55:00,32.2,27.6,30.31,ENE,71,0.0,0.0,83,0.05,,,0.05,Wunderground v.1.15,2013-01-11 21:55:00,
2013-01-11 17:01:00,32.1,27.8,30.31,ENE,74,0.0,0.0,84,0.04,,,0.05,Wunderground v.1.15,2013-01-11 22:01:00,
2013-01-11 17:10:00,32.0,28.0,30.31,ENE,74,0.0,0.0,85,0.00,,,0.06,Wunderground v.1.15,2013-01-11 22:10:00,
2013-01-11 17:16:00,32.0,28.0,30.30,ENE,75,0.0,0.0,85,0.00,,,0.06,Wunderground v.1.15,2013-01-11 22:16:00,
2013-01-11 17:25:00,32.0,28.0,30.30,East,79,0.0,1.0,85,0.00,,,0.06,Wunderground v.1.15,2013-01-11 22:25:00,
2013-01-11 17:31:00,32.0,28.0,30.30,SW,231,0.0,0.0,85,0.00,,,0.06,Wunderground v.1.15,2013-01-11 22:31:00,
2013-01-11 17:36:00,32.1,28.4,30.29,WSW,238,0.0,1.0,86,0.00,,,0.06,Wunderground v.1.15,2013-01-11 22:36:00,
2013-01-11 17:46:00,33.1,28.8,30.29,NNE,32,0.0,1.0,84,0.00,,,0.06,Wunderground v.1.15,2013-01-11 22:46:00,
2013-01-11 17:51:00,32.6,28.3,30.29,NNE,25,0.0,0.0,84,0.00,,,0.06,Wunderground v.1.15,2013-01-11 22:51:00,
2013-01-11 17:56:00,32.3,28.3,30.29,NNE,25,0.0,0.0,85,0.00,,,0.06,Wunderground v.1.15,2013-01-11 22:56:00,
2013-01-11 18:01:00,33.3,30.1,30.29,NNE,27,0.0,0.0,88,0.00,,,0.06,Wunderground v.1.15,2013-01-11 23:01:00,
2013-01-11 18:11:00,32.8,28.5,30.29,NE,34,0.0,0.0,84,0.00,,,0.06,Wunderground v.1.15,2013-01-11 23:11:00,
2013-01-11 18:16:00,32.4,28.4,30.29,SSE,152,0.0,0.0,85,0.00,,,0.06,Wunderground v.1.15,2013-01-11 23:16:00,
2013-01-11 18:21:00,32.1,28.1,30.29,SE,141,1.0,1.0,85,0.00,,,0.06,Wunderground v.1.15,2013-01-11 23:21:00,
2013-01-11 18:31:00,31.8,28.1,30.28,SE,136,1.0,1.0,86,0.00,,,0.06,Wunderground v.1.15,2013-01-11 23:31:00,
2013-01-11 18:36:00,31.7,28.0,30.27,SE,134,0.0,1.0,86,0.00,,,0.06,Wunderground v.1.15,2013-01-11 23:36:00,
2013-01-11 18:41:00,31.8,28.1,30.27,SE,124,0.0,0.0,86,0.00,,,0.06,Wunderground v.1.15,2013-01-11 23:41:00,
2013-01-11 18:51:00,31.8,28.1,30.27,ESE,113,0.0,0.0,86,0.00,,,0.07,Wunderground v.1.15,2013-01-11 23:51:00,
2013-01-11 19:01:00,33.2,30.0,30.27,East,101,0.0,0.0,88,0.00,,,0.07,Wunderground v.1.15,2013-01-12 00:01:00,
2013-01-11 19:11:00,35.2,32.0,30.27,ENE,63,0.0,1.0,88,0.00,,,0.08,Wunderground v.1.15,2013-01-12 00:11:00,
2013-01-11 19:16:00,35.4,31.3,30.27,ENE,61,1.0,1.0,85,0.00,,,0.08,Wunderground v.1.15,2013-01-12 00:16:00,
2013-01-11 19:26:00,36.3,33.4,30.27,NE,54,0.0,1.0,89,0.00,,,0.08,Wunderground v.1.15,2013-01-12 00:26:00,
2013-01-11 19:31:00,35.9,32.1,30.26,NE,54,0.0,0.0,86,0.00,,,0.08,Wunderground v.1.15,2013-01-12 00:31:00,
2013-01-11 19:36:00,35.9,30.9,30.26,NE,54,0.0,1.0,82,0.00,,,0.09,Wunderground v.1.15,2013-01-12 00:36:00,
2013-01-11 19:46:00,34.4,30.1,30.26,NE,52,0.0,1.0,84,0.00,,,0.09,Wunderground v.1.15,2013-01-12 00:46:00,
2013-01-11 19:51:00,40.5,37.8,30.26,NE,53,1.0,1.0,90,0.05,,,0.10,Wunderground v.1.15,2013-01-12 00:51:00,
2013-01-11 20:01:00,38.1,35.4,30.26,NE,51,1.0,1.0,90,0.06,,,0.11,Wunderground v.1.15,2013-01-12 01:01:00,
2013-01-11 20:11:00,35.4,31.0,30.25,NE,51,0.0,0.0,84,0.04,,,0.11,Wunderground v.1.15,2013-01-12 01:11:00,
2013-01-11 20:16:00,34.7,30.7,30.25,NE,51,0.0,1.0,85,0.04,,,0.12,Wunderground v.1.15,2013-01-12 01:16:00,
2013-01-11 20:21:00,35.2,31.4,30.25,NE,51,0.0,0.0,86,0.04,,,0.12,Wunderground v.1.15,2013-01-12 01:21:00,
2013-01-11 20:31:00,34.8,31.0,30.24,NE,51,0.0,0.0,86,0.04,,,0.13,Wunderground v.1.15,2013-01-12 01:31:00,
2013-01-11 20:41:00,33.5,29.2,30.24,NE,50,0.0,0.0,84,0.04,,,0.13,Wunderground v.1.15,2013-01-12 01:41:00,
2013-01-11 20:46:00,34.8,31.9,30.24,NE,47,0.0,1.0,89,0.00,,,0.13,Wunderground v.1.15,2013-01-12 01:46:00,
2013-01-11 20:51:00,33.8,30.1,30.24,NE,48,0.0,0.0,86,0.00,,,0.13,Wunderground v.1.15,2013-01-12 01:51:00,
2013-01-11 21:01:00,33.7,30.5,30.23,NE,42,0.0,0.0,88,0.00,,,0.13,Wunderground v.1.15,2013-01-12 02:01:00,
2013-01-11 21:11:00,33.1,29.9,30.22,NE,41,0.0,0.0,88,0.00,,,0.13,Wunderground v.1.15,2013-01-12 02:11:00,
2013-01-11 21:16:00,34.7,31.8,30.22,NNE,30,0.0,1.0,89,0.00,,,0.13,Wunderground v.1.15,2013-01-12 02:16:00,
2013-01-11 21:26:00,34.0,29.7,30.22,NNW,340,0.0,0.0,84,0.00,,,0.13,Wunderground v.1.15,2013-01-12 02:26:00,
2013-01-11 21:31:00,33.1,29.4,30.22,NNW,335,0.0,0.0,86,0.00,,,0.13,Wunderground v.1.15,2013-01-12 02:31:00,
2013-01-11 21:36:00,32.7,29.3,30.23,NNW,331,0.0,1.0,87,0.00,,,0.13,Wunderground v.1.15,2013-01-12 02:36:00,
2013-01-11 21:46:00,33.9,31.0,30.23,NE,51,1.0,2.0,89,0.00,,,0.13,Wunderground v.1.15,2013-01-12 02:46:00,
2013-01-11 21:51:00,36.4,33.7,30.23,NE,37,2.0,2.0,90,0.00,,,0.13,Wunderground v.1.15,2013-01-12 02:51:00,
2013-01-11 22:02:00,35.8,33.2,30.23,NE,44,2.0,2.0,90,0.00,,,0.13,Wunderground v.1.15,2013-01-12 03:02:00,
2013-01-11 22:11:00,40.4,37.7,30.23,NE,47,1.0,2.0,90,0.00,,,0.13,Wunderground v.1.15,2013-01-12 03:11:00,
2013-01-11 22:16:00,45.4,42.9,30.24,NE,36,2.0,2.0,91,0.00,,,0.13,Wunderground v.1.15,2013-01-12 03:16:00,
2013-01-11 22:21:00,39.2,36.5,30.24,NE,34,2.0,2.0,90,0.00,,,0.13,Wunderground v.1.15,2013-01-12 03:21:00,
2013-01-11 22:31:00,43.4,40.9,30.24,NNE,22,1.0,1.0,91,0.00,,,0.13,Wunderground v.1.15,2013-01-12 03:31:00,
2013-01-11 22:36:00,39.1,36.4,30.24,NNE,19,1.0,1.0,90,0.00,,,0.13,Wunderground v.1.15,2013-01-12 03:36:00,
2013-01-11 22:41:00,37.1,33.9,30.25,NNE,23,1.0,1.0,88,0.00,,,0.13,Wunderground v.1.15,2013-01-12 03:41:00,
2013-01-11 22:51:00,35.5,32.6,30.24,NNE,23,0.0,0.0,89,0.00,,,0.14,Wunderground v.1.15,2013-01-12 03:51:00,
2013-01-11 22:56:00,33.9,30.4,30.24,NNE,21,0.0,0.0,87,0.00,,,0.14,Wunderground v.1.15,2013-01-12 03:56:00,
2013-01-11 23:02:00,33.4,30.2,30.24,NNE,22,0.0,0.0,88,0.00,,,0.14,Wunderground v.1.15,2013-01-12 04:02:00,
2013-01-11 23:11:00,35.1,32.5,30.24,NNE,19,0.0,0.0,90,0.00,,,0.14,Wunderground v.1.15,2013-01-12 04:11:00,
2013-01-11 23:16:00,33.7,30.5,30.24,WNW,299,0.0,0.0,88,0.00,,,0.15,Wunderground v.1.15,2013-01-12 04:16:00,
2013-01-11 23:21:00,33.2,30.0,30.24,WNW,300,0.0,0.0,88,0.00,,,0.15,Wunderground v.1.15,2013-01-12 04:21:00,
2013-01-11 23:31:00,33.6,30.7,30.23,NW,323,0.0,0.0,89,0.00,,,0.15,Wunderground v.1.15,2013-01-12 04:31:00,
2013-01-11 23:36:00,33.1,29.9,30.22,NW,323,0.0,0.0,88,0.00,,,0.15,Wunderground v.1.15,2013-01-12 04:36:00,
2013-01-11 23:42:00,33.1,30.2,30.22,NW,326,0.0,1.0,89,0.00,,,0.15,Wunderground v.1.15,2013-01-12 04:42:00,
2013-01-11 23:51:00,32.6,29.7,30.22,NW,326,0.0,0.0,89,0.00,,,0.15,Wunderground v.1.15,2013-01-12 04:51:00,
2013-01-11 23:57:00,32.8,29.9,30.22,NNW,330,0.0,0.0,89,0.00,,,0.00,Wunderground v.1.15,2013-01-12 04:57:00,